createdAt,value
2023-03-26T00:00:44.105Z,93.70
2023-03-26T00:03:11.841Z,93.49
2023-03-26T00:05:39.398Z,93.13
2023-03-26T00:08:08.887Z,93.10
2023-03-26T00:10:36.866Z,93.02
2023-03-26T00:13:07.356Z,92.87
2023-03-26T00:15:35.523Z,92.67
2023-03-26T00:18:02.195Z,92.62
2023-03-26T00:20:32.685Z,92.24
2023-03-26T00:23:02.637Z,92.28
2023-03-26T00:25:29.119Z,92.29
2023-03-26T00:27:55.668Z,92.21
2023-03-26T00:30:22.214Z,92.51
2023-03-26T00:32:53.973Z,92.19
2023-03-26T00:35:20.799Z,91.33
2023-03-26T00:37:47.806Z,91.74
2023-03-26T00:40:14.591Z,91.41
2023-03-26T00:42:42.471Z,91.93
2023-03-26T00:45:09.519Z,91.70
2023-03-26T00:47:36.548Z,91.61
2023-03-26T00:50:04.341Z,91.41
2023-03-26T00:52:31.706Z,91.37
2023-03-26T00:54:58.389Z,91.32
2023-03-26T00:57:35.996Z,91.68
2023-03-26T01:00:16.594Z,91.78
2023-03-26T01:02:45.165Z,91.38
2023-03-26T01:05:42.942Z,91.76
2023-03-26T01:08:19.233Z,91.96
2023-03-26T01:10:50.911Z,91.60
2023-03-26T01:13:21.918Z,90.72
2023-03-26T01:15:49.846Z,91.77
2023-03-26T01:18:26.322Z,91.42
2023-03-26T01:21:05.050Z,91.28
2023-03-26T01:23:40.525Z,91.32
2023-03-26T01:26:33.275Z,91.26
2023-03-26T01:29:03.959Z,91.41
2023-03-26T01:31:39.514Z,91.20
2023-03-26T01:34:23.659Z,91.40
2023-03-26T01:36:56.068Z,91.18
2023-03-26T01:39:49.159Z,91.27
2023-03-26T01:42:27.783Z,91.16
2023-03-26T01:45:03.178Z,91.13
2023-03-26T01:47:31.237Z,91.19
2023-03-26T01:49:57.825Z,90.95
2023-03-26T01:52:26.127Z,90.74
2023-03-26T01:54:55.856Z,91.14
2023-03-26T01:57:44.682Z,90.83
2023-03-26T02:00:28.432Z,91.15
2023-03-26T02:03:36.551Z,90.94
2023-03-26T02:06:37.337Z,91.07
2023-03-26T02:09:08.984Z,90.94
2023-03-26T02:11:38.479Z,91.29
2023-03-26T02:14:06.066Z,91.23
2023-03-26T02:16:33.091Z,91.30
2023-03-26T02:19:00.733Z,91.43
2023-03-26T02:21:28.130Z,91.26
2023-03-26T02:24:02.667Z,91.13
2023-03-26T02:26:33.830Z,91.50
2023-03-26T02:29:06.855Z,91.17
2023-03-26T02:31:35.946Z,91.23
2023-03-26T02:34:03.625Z,91.17
2023-03-26T02:36:35.927Z,91.31
2023-03-26T02:39:04.821Z,91.38
2023-03-26T02:41:34.946Z,91.19
2023-03-26T02:44:06.220Z,90.95
2023-03-26T02:47:01.705Z,91.42
2023-03-26T02:49:57.284Z,90.98
2023-03-26T02:52:40.103Z,91.11
2023-03-26T02:55:07.401Z,91.11
2023-03-26T02:57:34.760Z,91.06
2023-03-26T03:00:14.958Z,91.33
2023-03-26T03:02:48.233Z,91.20
2023-03-26T03:05:38.984Z,91.32
2023-03-26T03:08:41.609Z,90.37
2023-03-26T03:11:14.846Z,91.36
2023-03-26T03:13:49.093Z,91.23
2023-03-26T03:16:20.082Z,91.26
2023-03-26T03:18:53.997Z,91.44
2023-03-26T03:21:25.809Z,91.58
2023-03-26T03:23:53.152Z,91.90
2023-03-26T03:26:21.799Z,91.79
2023-03-26T03:28:51.975Z,91.91
2023-03-26T03:31:18.881Z,91.82
2023-03-26T03:33:46.399Z,91.88
2023-03-26T03:36:20.828Z,92.10
2023-03-26T03:38:55.336Z,92.17
2023-03-26T03:41:23.546Z,92.08
2023-03-26T03:43:51.821Z,92.15
2023-03-26T03:46:24.744Z,92.57
2023-03-26T03:48:51.359Z,92.56
2023-03-26T03:51:23.722Z,92.39
2023-03-26T03:53:56.523Z,92.45
2023-03-26T03:56:51.833Z,92.01
2023-03-26T03:59:37.143Z,92.35
2023-03-26T04:02:07.154Z,92.36
2023-03-26T04:04:40.781Z,92.60
2023-03-26T04:07:11.199Z,92.67
2023-03-26T04:10:08.943Z,92.53
2023-03-26T04:12:54.150Z,92.74
2023-03-26T04:15:36.014Z,92.56
2023-03-26T04:18:03.522Z,92.94
2023-03-26T04:20:32.096Z,92.98
2023-03-26T04:22:59.186Z,92.88
2023-03-26T04:25:30.419Z,93.02
2023-03-26T04:28:33.763Z,93.08
2023-03-26T04:31:24.118Z,93.46
2023-03-26T04:33:56.353Z,93.29
2023-03-26T04:36:27.240Z,93.89
2023-03-26T04:38:55.346Z,93.78
2023-03-26T04:41:32.336Z,94.19
2023-03-26T04:44:03.637Z,93.85
2023-03-26T04:46:47.329Z,93.90
2023-03-26T04:49:21.078Z,94.10
2023-03-26T04:51:47.972Z,94.33
2023-03-26T04:54:50.303Z,94.30
2023-03-26T04:57:37.669Z,94.12
2023-03-26T05:00:15.915Z,93.00
2023-03-26T05:02:45.947Z,94.27
2023-03-26T05:05:12.762Z,94.36
2023-03-26T05:07:39.625Z,94.85
2023-03-26T05:10:09.218Z,94.95
2023-03-26T05:12:45.593Z,94.98
2023-03-26T05:15:25.316Z,95.18
2023-03-26T05:17:57.985Z,95.07
2023-03-26T05:20:36.861Z,95.17
2023-03-26T05:23:07.344Z,95.32
2023-03-26T05:25:36.943Z,95.42
2023-03-26T05:28:10.531Z,95.24
2023-03-26T05:30:48.751Z,95.52
2023-03-26T05:33:16.371Z,95.61
2023-03-26T05:36:03.288Z,95.76
2023-03-26T05:38:31.860Z,95.53
2023-03-26T05:41:01.346Z,95.73
2023-03-26T05:43:29.031Z,95.55
2023-03-26T05:46:03.596Z,95.63
2023-03-26T05:48:32.194Z,95.43
2023-03-26T05:50:59.909Z,95.50
2023-03-26T05:53:28.997Z,95.95
2023-03-26T05:56:30.617Z,96.01
2023-03-26T05:59:16.135Z,96.06
2023-03-26T06:01:45.337Z,96.03
2023-03-26T06:04:17.954Z,95.83
2023-03-26T06:06:56.953Z,95.92
2023-03-26T06:09:23.833Z,96.12
2023-03-26T06:11:50.350Z,96.11
2023-03-26T06:14:17.002Z,96.18
2023-03-26T06:17:03.693Z,96.21
2023-03-26T06:19:37.650Z,96.26
2023-03-26T06:22:12.322Z,96.34
2023-03-26T06:24:58.776Z,96.27
2023-03-26T06:27:41.311Z,96.34
2023-03-26T06:30:33.926Z,96.52
2023-03-26T06:33:07.128Z,96.18
2023-03-26T06:35:42.719Z,96.09
2023-03-26T06:38:09.538Z,96.35
2023-03-26T06:40:36.522Z,96.52
2023-03-26T06:43:26.220Z,96.39
2023-03-26T06:46:11.747Z,96.54
2023-03-26T06:49:01.513Z,96.40
2023-03-26T06:51:47.374Z,96.51
2023-03-26T06:54:27.832Z,96.81
2023-03-26T06:56:59.973Z,96.52
2023-03-26T06:59:43.669Z,96.53
2023-03-26T07:02:28.896Z,96.50
2023-03-26T07:05:14.704Z,96.33
2023-03-26T07:07:59.992Z,96.15
2023-03-26T07:10:56.112Z,95.76
2023-03-26T07:13:41.832Z,95.56
2023-03-26T07:16:27.114Z,95.27
2023-03-26T07:19:06.733Z,96.19
2023-03-26T07:21:36.097Z,96.38
2023-03-26T07:24:12.446Z,96.75
2023-03-26T07:27:23.408Z,96.84
2023-03-26T07:29:59.654Z,96.62
2023-03-26T07:32:54.992Z,97.35
2023-03-26T07:35:43.504Z,96.65
2023-03-26T07:39:11.486Z,97.06
2023-03-26T07:42:33.869Z,97.72
2023-03-26T07:45:41.341Z,97.36
2023-03-26T07:48:42.853Z,97.69
2023-03-26T07:51:35.666Z,97.60
2023-03-26T07:54:40.502Z,97.40
2023-03-26T07:57:33.250Z,97.90
2023-03-26T08:00:28.514Z,97.57
2023-03-26T08:03:30.320Z,97.98
2023-03-26T08:06:26.208Z,97.96
2023-03-26T08:09:04.516Z,97.40
2023-03-26T08:11:57.093Z,97.70
2023-03-26T08:14:47.867Z,98.21
2023-03-26T08:17:16.246Z,98.30
2023-03-26T08:20:02.104Z,98.58
2023-03-26T08:22:36.663Z,98.60
2023-03-26T08:25:27.610Z,98.37
2023-03-26T08:28:15.727Z,98.43
2023-03-26T08:30:42.357Z,98.43
2023-03-26T08:33:11.278Z,99.12
2023-03-26T08:35:44.228Z,99.74
2023-03-26T08:38:13.349Z,99.61
2023-03-26T08:41:07.842Z,99.68
2023-03-26T08:43:37.213Z,99.77
2023-03-26T08:46:42.117Z,99.66
2023-03-26T08:49:42.831Z,99.58
2023-03-26T08:52:34.717Z,99.44
2023-03-26T08:55:19.661Z,99.12
2023-03-26T08:58:09.377Z,99.46
2023-03-26T09:00:54.417Z,99.40
2023-03-26T09:03:48.570Z,99.45
2023-03-26T09:06:35.984Z,99.42
2023-03-26T09:09:45.410Z,99.34
2023-03-26T09:12:25.654Z,99.52
2023-03-26T09:15:13.387Z,99.48
2023-03-26T09:17:58.210Z,99.19
2023-03-26T09:21:16.416Z,98.81
2023-03-26T09:23:57.326Z,99.07
2023-03-26T09:26:43.610Z,99.01
2023-03-26T09:29:38.226Z,99.40
2023-03-26T09:32:23.606Z,99.38
2023-03-26T09:34:58.953Z,99.24
2023-03-26T09:37:56.465Z,99.32
2023-03-26T09:41:23.300Z,99.06
2023-03-26T09:44:27.134Z,99.77
2023-03-26T09:47:12.174Z,99.83
2023-03-26T09:50:00.437Z,100.00
2023-03-26T09:52:38.916Z,100.00
2023-03-26T09:55:32.461Z,99.78
2023-03-26T09:58:20.439Z,100.00
2023-03-26T10:01:01.053Z,100.00
2023-03-26T10:03:52.033Z,99.85
2023-03-26T10:06:44.553Z,99.63
2023-03-26T10:09:29.529Z,100.00
2023-03-26T10:11:56.010Z,100.00
2023-03-26T10:14:47.537Z,99.04
2023-03-26T10:17:36.785Z,98.49
2023-03-26T10:20:26.264Z,98.44
2023-03-26T10:22:59.660Z,98.44
2023-03-26T10:25:42.334Z,98.74
2023-03-26T10:28:29.477Z,98.45
2023-03-26T10:31:15.965Z,98.09
2023-03-26T10:33:52.195Z,97.83
2023-03-26T10:36:34.711Z,97.90
2023-03-26T10:39:36.648Z,98.01
2023-03-26T10:42:17.691Z,98.00
2023-03-26T10:45:02.685Z,97.80
2023-03-26T10:47:35.405Z,98.13
2023-03-26T10:50:32.194Z,98.30
2023-03-26T10:53:04.775Z,97.49
2023-03-26T10:55:39.739Z,97.78
2023-03-26T10:58:26.213Z,98.07
2023-03-26T11:01:04.797Z,98.74
2023-03-26T11:03:52.126Z,99.14
2023-03-26T11:06:23.645Z,99.47
2023-03-26T11:09:07.918Z,99.35
2023-03-26T11:11:46.258Z,99.01
2023-03-26T11:14:34.942Z,99.41
2023-03-26T11:17:41.592Z,98.86
2023-03-26T11:20:32.244Z,97.66
2023-03-26T11:23:28.496Z,99.77
2023-03-26T11:26:17.747Z,99.45
2023-03-26T11:29:31.733Z,98.78
2023-03-26T11:32:10.263Z,98.81
2023-03-26T11:34:58.255Z,98.86
2023-03-26T11:37:51.800Z,99.51
2023-03-26T11:40:28.223Z,100.00
2023-03-26T11:43:02.065Z,100.00
2023-03-26T11:45:32.939Z,99.90
2023-03-26T11:48:16.976Z,99.88
2023-03-26T11:50:55.476Z,99.76
2023-03-26T11:53:28.966Z,99.80
2023-03-26T11:56:04.196Z,99.90
2023-03-26T11:58:33.795Z,99.79
2023-03-26T12:01:05.357Z,100.00
2023-03-26T12:03:32.111Z,99.92
2023-03-26T12:05:59.815Z,100.00
2023-03-26T12:08:39.340Z,100.00
2023-03-26T12:11:12.210Z,100.00
2023-03-26T12:13:43.463Z,100.00
2023-03-26T12:16:15.537Z,99.70
2023-03-26T12:18:44.089Z,99.61
2023-03-26T12:21:14.870Z,99.70
2023-03-26T12:23:58.537Z,99.84
2023-03-26T12:26:36.337Z,100.00
2023-03-26T12:29:10.883Z,100.00
2023-03-26T12:31:50.541Z,100.00
2023-03-26T12:34:19.958Z,100.00
2023-03-26T12:36:55.758Z,100.00
2023-03-26T12:40:08.608Z,100.00
2023-03-26T12:44:46.607Z,100.00
2023-03-26T12:45:37.523Z,100.00
2023-03-26T12:48:04.923Z,100.00
2023-03-26T12:50:50.256Z,100.00
2023-03-26T12:53:39.605Z,100.00
2023-03-26T12:56:06.104Z,100.00
2023-03-26T12:58:57.080Z,100.00
2023-03-26T13:01:59.948Z,100.00
2023-03-26T13:05:07.767Z,99.96
2023-03-26T13:07:57.569Z,99.52
2023-03-26T13:10:37.785Z,98.94
2023-03-26T13:13:36.528Z,98.39
2023-03-26T13:16:17.631Z,98.08
2023-03-26T13:19:02.681Z,97.74
2023-03-26T13:21:48.569Z,97.79
2023-03-26T13:24:23.378Z,98.27
2023-03-26T13:27:19.024Z,98.49
2023-03-26T13:29:56.971Z,98.21
2023-03-26T13:32:42.403Z,98.01
2023-03-26T13:35:24.132Z,97.57
2023-03-26T13:38:13.604Z,98.37
2023-03-26T13:41:07.184Z,98.77
2023-03-26T13:44:15.936Z,98.74
2023-03-26T13:46:48.885Z,98.78
2023-03-26T13:49:29.192Z,98.13
2023-03-26T13:52:19.136Z,98.22
2023-03-26T13:54:55.274Z,98.38
2023-03-26T13:57:28.724Z,98.15
2023-03-26T14:00:21.805Z,98.58
2023-03-26T14:03:16.240Z,98.67
2023-03-26T14:05:47.052Z,98.19
2023-03-26T14:08:25.338Z,99.05
2023-03-26T14:10:58.911Z,99.11
2023-03-26T14:13:41.729Z,99.10
2023-03-26T14:16:24.235Z,100.00
2023-03-26T14:19:21.991Z,99.03
2023-03-26T14:22:10.297Z,98.76
2023-03-26T14:24:39.699Z,99.17
2023-03-26T14:27:51.966Z,99.88
2023-03-26T14:31:12.400Z,99.89
2023-03-26T14:34:16.602Z,99.01
2023-03-26T14:36:46.222Z,98.28
2023-03-26T14:39:15.684Z,97.63
2023-03-26T14:41:50.573Z,97.97
2023-03-26T14:44:26.091Z,98.24
2023-03-26T14:47:15.779Z,98.26
2023-03-26T14:50:04.374Z,98.65
2023-03-26T14:52:52.254Z,98.17
2023-03-26T14:55:44.040Z,99.73
2023-03-26T14:58:41.507Z,100.00
2023-03-26T15:01:25.087Z,99.87
2023-03-26T15:04:27.788Z,99.05
2023-03-26T15:07:15.403Z,99.12
2023-03-26T15:10:00.633Z,99.75
2023-03-26T15:12:56.690Z,99.79
2023-03-26T15:15:38.458Z,98.63
2023-03-26T15:18:23.165Z,99.08
2023-03-26T15:21:27.451Z,99.04
2023-03-26T15:24:27.245Z,99.34
2023-03-26T15:27:21.370Z,98.43
2023-03-26T15:30:05.596Z,98.44
2023-03-26T15:32:52.633Z,98.23
2023-03-26T15:35:42.079Z,99.53
2023-03-26T15:38:48.824Z,99.19
2023-03-26T15:41:20.479Z,99.32
2023-03-26T15:44:23.438Z,99.04
2023-03-26T15:47:05.541Z,97.10
2023-03-26T15:49:35.745Z,96.54
2023-03-26T15:52:20.637Z,96.54
2023-03-26T15:54:59.923Z,94.96
2023-03-26T15:57:34.433Z,94.61
2023-03-26T16:00:15.231Z,93.28
2023-03-26T16:03:06.293Z,93.50
2023-03-26T16:05:53.994Z,93.33
2023-03-26T16:09:04.630Z,93.60
2023-03-26T16:11:57.799Z,92.53
2023-03-26T16:14:36.339Z,90.99
2023-03-26T16:17:06.474Z,90.13
2023-03-26T16:19:48.926Z,87.56
2023-03-26T16:22:54.809Z,89.68
2023-03-26T16:25:28.953Z,88.07
2023-03-26T16:28:10.789Z,88.97
2023-03-26T16:30:38.135Z,87.58
2023-03-26T16:33:21.071Z,88.01
2023-03-26T16:36:02.977Z,87.28
2023-03-26T16:38:50.083Z,87.25
2023-03-26T16:41:41.000Z,86.48
2023-03-26T16:44:24.263Z,86.00
2023-03-26T16:47:15.951Z,85.75
2023-03-26T16:50:07.753Z,86.50
2023-03-26T16:52:50.458Z,86.10
2023-03-26T16:55:20.093Z,86.34
2023-03-26T16:57:56.228Z,83.30
2023-03-26T17:00:48.457Z,84.95
2023-03-26T17:03:26.860Z,87.14
2023-03-26T17:05:59.098Z,84.02
2023-03-26T17:08:53.452Z,83.40
2023-03-26T17:11:39.964Z,82.51
2023-03-26T17:14:28.179Z,83.10
2023-03-26T17:17:21.201Z,83.78
2023-03-26T17:20:11.386Z,82.33
2023-03-26T17:22:41.786Z,82.18
2023-03-26T17:25:40.400Z,82.54
2023-03-26T17:28:41.026Z,82.85
2023-03-26T17:31:26.291Z,80.54
2023-03-26T17:33:53.500Z,80.35
2023-03-26T17:36:21.402Z,81.14
2023-03-26T17:38:47.949Z,80.75
2023-03-26T17:41:55.357Z,81.43
2023-03-26T17:44:37.163Z,80.40
2023-03-26T17:47:12.437Z,80.15
2023-03-26T17:49:40.953Z,78.67
2023-03-26T17:52:25.200Z,78.67
2023-03-26T17:54:55.953Z,78.10
2023-03-26T17:57:30.803Z,76.60
2023-03-26T17:59:59.533Z,77.52
2023-03-26T18:02:41.294Z,76.98
2023-03-26T18:05:16.752Z,76.52
2023-03-26T18:08:03.806Z,77.14
2023-03-26T18:10:42.575Z,76.54
2023-03-26T18:13:21.215Z,76.73
2023-03-26T18:16:07.407Z,77.02
2023-03-26T18:18:42.163Z,75.26
2023-03-26T18:21:17.637Z,74.74
2023-03-26T18:23:47.530Z,73.52
2023-03-26T18:26:36.026Z,75.22
2023-03-26T18:29:19.714Z,75.51
2023-03-26T18:31:49.323Z,72.30
2023-03-26T18:34:20.418Z,72.44
2023-03-26T18:37:14.523Z,71.85
2023-03-26T18:39:44.274Z,72.49
2023-03-26T18:42:24.805Z,71.61
2023-03-26T18:44:52.909Z,70.46
2023-03-26T18:47:20.540Z,70.25
2023-03-26T18:49:49.833Z,70.41
2023-03-26T18:52:19.022Z,70.13
2023-03-26T18:54:52.388Z,70.30
2023-03-26T18:57:36.990Z,71.00
2023-03-26T19:00:19.952Z,70.14
2023-03-26T19:02:51.041Z,70.08
2023-03-26T19:05:19.562Z,70.79
2023-03-26T19:07:47.167Z,70.06
2023-03-26T19:10:22.138Z,67.80
2023-03-26T19:12:57.316Z,69.99
2023-03-26T19:15:27.008Z,70.37
2023-03-26T19:17:59.648Z,70.39
2023-03-26T19:20:29.506Z,68.31
2023-03-26T19:22:57.137Z,68.89
2023-03-26T19:25:28.809Z,69.56
2023-03-26T19:27:56.057Z,70.44
2023-03-26T19:30:31.724Z,71.02
2023-03-26T19:33:13.962Z,65.65
2023-03-26T19:35:42.456Z,64.11
2023-03-26T19:38:27.156Z,64.11
2023-03-26T19:40:57.867Z,64.16
2023-03-26T19:43:25.650Z,66.97
2023-03-26T19:45:59.749Z,69.77
2023-03-26T19:48:45.426Z,70.87
2023-03-26T19:51:21.508Z,68.54
2023-03-26T19:53:55.570Z,69.43
2023-03-26T19:56:22.816Z,68.98
2023-03-26T19:58:51.940Z,68.44
2023-03-26T20:01:36.897Z,68.67
2023-03-26T20:04:06.294Z,67.07
2023-03-26T20:06:43.395Z,67.30
2023-03-26T20:09:12.886Z,67.34
2023-03-26T20:11:40.652Z,67.42
2023-03-26T20:14:13.819Z,68.85
2023-03-26T20:16:41.636Z,68.15
2023-03-26T20:19:11.022Z,67.90
2023-03-26T20:21:41.169Z,67.86
2023-03-26T20:24:13.022Z,67.46
2023-03-26T20:26:39.512Z,69.72
2023-03-26T20:29:06.230Z,67.89
2023-03-26T20:31:32.908Z,69.40
2023-03-26T20:33:59.520Z,68.50
2023-03-26T20:36:33.230Z,68.56
2023-03-26T20:39:05.616Z,68.38
2023-03-26T20:41:33.665Z,68.49
2023-03-26T20:44:00.408Z,69.63
2023-03-26T20:46:31.188Z,70.06
2023-03-26T20:48:59.328Z,70.39
2023-03-26T20:51:28.158Z,70.30
2023-03-26T20:53:55.191Z,69.41
2023-03-26T20:56:21.981Z,70.63
2023-03-26T20:58:54.815Z,70.28
2023-03-26T21:01:27.730Z,71.01
2023-03-26T21:03:54.672Z,70.81
2023-03-26T21:06:21.310Z,71.63
2023-03-26T21:08:48.032Z,70.62
2023-03-26T21:11:27.236Z,71.88
2023-03-26T21:14:09.230Z,71.75
2023-03-26T21:16:36.310Z,72.25
2023-03-26T21:19:03.304Z,71.78
2023-03-26T21:21:42.109Z,71.84
2023-03-26T21:24:26.544Z,72.24
2023-03-26T21:27:05.240Z,73.09
2023-03-26T21:29:32.034Z,71.72
2023-03-26T21:31:58.874Z,72.91
2023-03-26T21:34:27.294Z,72.24
2023-03-26T21:36:54.441Z,71.61
2023-03-26T21:39:21.114Z,72.35
2023-03-26T21:42:05.276Z,71.36
2023-03-26T21:44:33.418Z,72.34
2023-03-26T21:47:00.245Z,72.38
2023-03-26T21:49:27.245Z,71.67
2023-03-26T21:51:54.283Z,71.39
2023-03-26T21:54:24.138Z,72.85
2023-03-26T21:57:29.490Z,72.45
2023-03-26T22:00:15.170Z,72.25
2023-03-26T22:02:51.127Z,73.15
2023-03-26T22:05:22.363Z,72.53
2023-03-26T22:08:04.119Z,72.82
2023-03-26T22:10:32.023Z,73.28
2023-03-26T22:12:59.037Z,73.16
2023-03-26T22:15:31.061Z,73.31
2023-03-26T22:18:03.188Z,72.08
2023-03-26T22:20:29.728Z,73.82
2023-03-26T22:22:56.258Z,73.13
2023-03-26T22:25:24.020Z,73.28
2023-03-26T22:27:51.919Z,73.15
2023-03-26T22:30:20.520Z,73.52
2023-03-26T22:32:47.032Z,73.52
2023-03-26T22:35:14.399Z,74.07
2023-03-26T22:37:41.559Z,73.23
2023-03-26T22:40:08.927Z,74.21
2023-03-26T22:42:36.480Z,73.66
2023-03-26T22:45:04.175Z,73.41
2023-03-26T22:47:33.502Z,73.41
2023-03-26T22:50:00.619Z,74.43
2023-03-26T22:52:27.830Z,73.45
2023-03-26T22:54:54.564Z,73.77
2023-03-26T22:57:22.069Z,73.53
2023-03-26T22:59:48.890Z,73.69
2023-03-26T23:02:16.577Z,73.63
2023-03-26T23:04:44.054Z,73.78
2023-03-26T23:07:11.202Z,74.32
2023-03-26T23:09:37.665Z,73.73
2023-03-26T23:12:04.420Z,73.93
2023-03-26T23:14:32.311Z,74.70
2023-03-26T23:16:59.492Z,75.67
2023-03-26T23:19:26.396Z,74.44
2023-03-26T23:21:52.927Z,75.31
2023-03-26T23:24:19.664Z,75.70
2023-03-26T23:26:50.481Z,73.49
2023-03-26T23:29:18.288Z,73.62
2023-03-26T23:31:44.857Z,73.29
2023-03-26T23:34:13.347Z,74.52
2023-03-26T23:36:40.866Z,72.99
2023-03-26T23:39:08.304Z,73.74
2023-03-26T23:41:35.125Z,73.36
2023-03-26T23:44:01.691Z,73.04
2023-03-26T23:46:34.992Z,73.32
2023-03-26T23:49:03.444Z,74.59
2023-03-26T23:51:30.650Z,73.86
2023-03-26T23:53:57.743Z,74.46
2023-03-26T23:56:24.393Z,75.08
2023-03-26T23:58:51.233Z,75.52
